Time;durP1;ratioP1;P1;durP2;ratioP2;P2;SDS_P1;SDS_P2;PMS_P1;PMS_P2;Temp;Humidity;BMP_temperature;BMP_pressure;BME280_temperature;BME280_humidity;BME280_pressure;Samples;Min_cycle;Max_cycle;Signal;HPM_P1;HPM_P2
2022/03/07 00:00:51;;;;;;;22.23;10.48;;;;;;;-2.50;73.78;102731.00;5016307;28;20577;-66
2022/03/07 00:03:17;;;;;;;20.42;11.27;;;;;;;-2.45;73.32;102731.13;5001540;28;20516;-67
2022/03/07 00:05:42;;;;;;;19.80;11.88;;;;;;;-2.54;73.59;102728.31;5001640;28;20049;-67
2022/03/07 00:08:08;;;;;;;24.27;12.32;;;;;;;-2.74;75.15;102726.13;5000134;28;20037;-66
2022/03/07 00:10:33;;;;;;;20.52;11.55;;;;;;;-2.73;74.34;102732.25;5001415;28;20132;-66
2022/03/07 00:12:59;;;;;;;21.63;11.25;;;;;;;-2.74;74.54;102730.47;5016302;28;20086;-66
2022/03/07 00:15:25;;;;;;;22.52;12.88;;;;;;;-2.79;75.35;102726.91;5001345;28;20057;-67
2022/03/07 00:17:50;;;;;;;21.98;12.73;;;;;;;-2.80;76.30;102738.19;4999804;28;20148;-66
2022/03/07 00:20:16;;;;;;;24.98;13.23;;;;;;;-2.89;75.55;102736.25;5001055;28;20061;-66
2022/03/07 00:22:41;;;;;;;27.83;13.10;;;;;;;-2.71;75.30;102738.38;5001371;28;20709;-68
2022/03/07 00:25:07;;;;;;;36.80;14.50;;;;;;;-2.74;75.65;102733.97;5017201;28;20042;-66
2022/03/07 00:27:33;;;;;;;26.88;14.75;;;;;;;-2.70;75.86;102734.94;5001586;28;20049;-66
2022/03/07 00:29:59;;;;;;;24.33;13.43;;;;;;;-2.70;74.57;102737.53;5017381;28;20046;-67
2022/03/07 00:32:24;;;;;;;28.30;13.25;;;;;;;-2.71;74.92;102731.44;5016986;28;20034;-67
2022/03/07 00:34:51;;;;;;;25.30;13.48;;;;;;;-2.64;74.88;102732.44;5017475;28;20416;-66
2022/03/07 00:37:16;;;;;;;29.17;14.40;;;;;;;-2.62;74.39;102736.84;5017037;28;20045;-66
2022/03/07 00:39:42;;;;;;;28.63;14.05;;;;;;;-2.67;74.81;102737.59;5002767;28;20038;-66
2022/03/07 00:42:07;;;;;;;31.48;13.02;;;;;;;-2.74;74.91;102730.47;5001833;28;20038;-67
2022/03/07 00:44:33;;;;;;;26.48;13.50;;;;;;;-2.79;74.26;102734.72;5004244;28;20579;-66
2022/03/07 00:46:58;;;;;;;25.17;13.43;;;;;;;-2.81;74.56;102739.91;5004580;28;20037;-67
2022/03/07 00:49:24;;;;;;;21.20;11.77;;;;;;;-2.86;74.88;102738.94;5004341;28;20041;-66
2022/03/07 00:51:49;;;;;;;22.42;12.27;;;;;;;-2.88;74.61;102743.22;5003536;28;20816;-66
2022/03/07 00:54:15;;;;;;;24.95;12.27;;;;;;;-3.02;75.33;102740.28;5017332;28;20054;-67
2022/03/07 00:56:41;;;;;;;26.25;12.65;;;;;;;-3.03;75.00;102742.88;5001035;28;20132;-67
2022/03/07 00:59:07;;;;;;;25.65;12.32;;;;;;;-3.10;75.43;102743.59;5001291;28;20061;-67
2022/03/07 01:01:34;;;;;;;20.00;10.40;;;;;;;-3.04;74.40;102754.16;5000919;28;20108;-67
2022/03/07 01:03:59;;;;;;;19.35;11.40;;;;;;;-3.06;75.72;102746.31;5016677;28;20061;-67
2022/03/07 01:06:25;;;;;;;25.05;12.55;;;;;;;-3.08;75.00;102744.50;5000748;28;20042;-66
2022/03/07 01:08:50;;;;;;;24.25;12.95;;;;;;;-3.08;74.44;102745.38;5003432;28;20068;-66
2022/03/07 01:11:16;;;;;;;15.23;10.90;;;;;;;-3.10;74.42;102747.06;5006369;28;20056;-66
2022/03/07 01:13:41;;;;;;;23.52;11.30;;;;;;;-3.09;73.95;102748.84;4988225;28;20034;-67
2022/03/07 01:16:07;;;;;;;22.58;11.50;;;;;;;-3.13;74.29;102752.22;5004362;28;20040;-66
2022/03/07 01:18:32;;;;;;;23.02;11.23;;;;;;;-3.43;75.09;102752.34;5021217;28;20052;-69
2022/03/07 01:20:58;;;;;;;21.50;12.48;;;;;;;-3.72;77.42;102757.69;5006461;28;20066;-66
2022/03/07 01:23:23;;;;;;;22.20;12.75;;;;;;;-3.61;77.09;102759.69;5005770;28;20042;-67
2022/03/07 01:25:49;;;;;;;26.40;13.13;;;;;;;-3.47;77.50;102755.72;5005519;28;20038;-67
2022/03/07 01:28:14;;;;;;;24.15;13.35;;;;;;;-3.36;77.22;102753.38;5005480;28;20057;-67
2022/03/07 01:30:40;;;;;;;24.45;12.25;;;;;;;-3.42;76.95;102747.16;5003504;28;20041;-66
2022/03/07 01:33:06;;;;;;;27.25;12.23;;;;;;;-3.38;76.21;102750.72;5004973;28;20099;-66
2022/03/07 01:35:31;;;;;;;27.73;13.18;;;;;;;-3.39;77.01;102746.38;5002983;28;20034;-66
2022/03/07 01:37:57;;;;;;;27.70;12.77;;;;;;;-3.34;77.59;102754.31;5019973;28;20185;-66
2022/03/07 01:40:22;;;;;;;30.10;12.25;;;;;;;-3.33;75.98;102748.25;5019568;28;20136;-66
2022/03/07 01:42:47;;;;;;;24.65;13.52;;;;;;;-3.41;76.63;102745.47;5004882;28;20072;-66
2022/03/07 01:45:16;;;;;;;29.48;12.77;;;;;;;-3.38;76.31;102740.31;5003466;28;20069;-66
2022/03/07 01:47:42;;;;;;;23.70;12.25;;;;;;;-3.35;76.31;102739.50;5004726;28;20558;-66
2022/03/07 01:50:12;;;;;;;31.83;12.90;;;;;;;-3.31;76.67;102742.22;5004811;28;20052;-67
2022/03/07 01:52:41;;;;;;;26.27;13.35;;;;;;;-3.35;75.51;102747.34;5002982;28;20048;-66
2022/03/07 01:55:09;;;;;;;25.00;13.80;;;;;;;-3.40;75.96;102750.72;5002735;28;20123;-66
2022/03/07 01:57:41;;;;;;;26.95;12.57;;;;;;;-3.38;76.68;102748.13;5002289;28;20145;-67
2022/03/07 02:00:10;;;;;;;27.90;13.27;;;;;;;-3.53;76.60;102751.22;5013009;28;20048;-66
2022/03/07 02:02:38;;;;;;;30.42;12.25;;;;;;;-3.53;77.05;102750.34;5003567;28;20165;-67
2022/03/07 02:05:05;;;;;;;27.08;13.75;;;;;;;-3.48;77.57;102744.41;5002069;28;20041;-66
2022/03/07 02:07:31;;;;;;;25.83;13.57;;;;;;;-3.50;77.75;102750.44;5001492;28;20038;-67
2022/03/07 02:09:59;;;;;;;28.33;13.75;;;;;;;-3.48;76.76;102743.53;5017517;28;20055;-66
2022/03/07 02:12:26;;;;;;;22.30;12.05;;;;;;;-3.81;78.09;102740.97;5016802;28;20057;-67
2022/03/07 02:14:51;;;;;;;22.27;12.43;;;;;;;-3.72;77.51;102736.84;4984879;28;20045;-67
2022/03/07 02:17:17;;;;;;;27.13;14.13;;;;;;;-3.71;77.49;102730.81;5003504;28;20050;-67
2022/03/07 02:19:42;;;;;;;22.23;13.27;;;;;;;-3.75;77.43;102736.78;5001921;28;20041;-66
2022/03/07 02:22:10;;;;;;;27.17;13.27;;;;;;;-3.66;78.65;102736.13;5001822;28;20581;-66
2022/03/07 02:24:40;;;;;;;22.50;10.30;;;;;;;-3.70;78.49;102734.28;5017847;28;20033;-66
2022/03/07 02:27:10;;;;;;;27.63;13.70;;;;;;;-3.66;79.45;102742.22;5017946;28;20867;-67
2022/03/07 02:29:36;;;;;;;28.27;13.80;;;;;;;-3.60;78.54;102741.50;5003071;28;20045;-66
2022/03/07 02:32:07;;;;;;;33.75;15.23;;;;;;;-3.51;79.20;102744.34;5017525;28;20045;-68
2022/03/07 02:34:36;;;;;;;26.75;14.27;;;;;;;-3.45;78.66;102739.28;5018004;28;20049;-66
2022/03/07 02:37:01;;;;;;;27.60;13.63;;;;;;;-3.49;78.21;102737.44;5003313;28;20049;-66
2022/03/07 02:39:35;;;;;;;26.45;13.35;;;;;;;-3.70;76.64;102747.31;5018772;28;20058;-66
2022/03/07 02:42:01;;;;;;;27.50;13.63;;;;;;;-3.94;77.72;102752.75;5018752;28;20080;-66
2022/03/07 02:44:26;;;;;;;26.73;12.93;;;;;;;-3.98;77.07;102754.38;5002063;28;20125;-67
2022/03/07 02:46:52;;;;;;;28.25;14.95;;;;;;;-3.83;78.27;102740.91;5018371;28;20073;-67
2022/03/07 02:49:18;;;;;;;30.85;14.18;;;;;;;-3.73;79.24;102734.19;5003921;28;20128;-67
2022/03/07 02:51:43;;;;;;;23.75;13.20;;;;;;;-3.70;78.72;102740.38;4985978;28;20049;-66
2022/03/07 02:54:09;;;;;;;31.33;15.00;;;;;;;-3.65;78.10;102741.38;5018289;28;20060;-66
2022/03/07 02:56:35;;;;;;;30.33;14.48;;;;;;;-3.74;77.99;102733.31;5018441;28;20478;-67
2022/03/07 02:59:00;;;;;;;28.67;14.43;;;;;;;-3.77;78.62;102728.00;5003546;28;20607;-66
2022/03/07 03:01:26;;;;;;;27.08;13.48;;;;;;;-3.77;79.00;102738.44;5003598;28;20513;-66
2022/03/07 03:03:51;;;;;;;28.92;13.93;;;;;;;-3.71;79.82;102729.94;5001253;28;20562;-66
2022/03/07 03:06:17;;;;;;;36.78;14.38;;;;;;;-3.51;79.75;102725.22;5001328;28;20149;-67
2022/03/07 03:08:42;;;;;;;33.38;15.98;;;;;;;-3.51;79.16;102738.25;5002695;28;20038;-67
2022/03/07 03:11:08;;;;;;;39.60;16.17;;;;;;;-3.56;78.98;102730.31;5002469;28;20566;-66
2022/03/07 03:13:33;;;;;;;32.50;14.88;;;;;;;-3.51;79.29;102730.44;5001097;28;20065;-66
2022/03/07 03:15:59;;;;;;;29.60;16.05;;;;;;;-3.51;78.86;102733.03;5017713;28;20148;-68
2022/03/07 03:18:24;;;;;;;28.92;14.52;;;;;;;-3.45;78.99;102734.06;5002489;28;20075;-67
2022/03/07 03:20:51;;;;;;;32.47;14.85;;;;;;;-3.39;78.60;102734.22;5002015;28;20103;-66
2022/03/07 03:23:18;;;;;;;32.33;15.02;;;;;;;-3.34;78.80;102738.66;5002552;28;20126;-66
2022/03/07 03:25:44;;;;;;;35.45;17.35;;;;;;;-3.31;78.68;102737.03;5017291;28;20037;-66
2022/03/07 03:28:09;;;;;;;27.27;15.25;;;;;;;-3.28;78.92;102738.81;5002199;28;20061;-66
2022/03/07 03:30:35;;;;;;;34.50;14.88;;;;;;;-3.23;78.41;102738.06;5000939;28;20042;-66
2022/03/07 03:33:01;;;;;;;35.55;15.73;;;;;;;-3.15;78.71;102730.44;5002151;28;20048;-66
2022/03/07 03:35:27;;;;;;;29.25;13.90;;;;;;;-3.32;77.42;102731.75;5002725;28;20580;-66
2022/03/07 03:37:52;;;;;;;26.67;12.70;;;;;;;-3.65;76.92;102730.97;5017441;28;20029;-66
2022/03/07 03:40:18;;;;;;;26.73;13.82;;;;;;;-3.70;76.67;102734.28;5002337;28;20045;-68
2022/03/07 03:42:44;;;;;;;26.95;13.75;;;;;;;-3.68;76.74;102733.47;5001899;28;20084;-66
2022/03/07 03:45:10;;;;;;;28.45;13.52;;;;;;;-3.73;76.79;102737.69;5002604;28;20120;-67
2022/03/07 03:47:37;;;;;;;28.00;13.30;;;;;;;-3.67;77.73;102729.13;5002466;28;20171;-66
2022/03/07 03:50:05;;;;;;;28.08;14.68;;;;;;;-3.60;77.15;102738.03;5016483;28;20042;-67
2022/03/07 03:52:31;;;;;;;21.13;11.25;;;;;;;-3.68;77.27;102738.69;5016102;28;20049;-66
2022/03/07 03:54:56;;;;;;;27.90;13.30;;;;;;;-3.68;78.00;102738.69;5001309;28;20121;-66
2022/03/07 03:57:23;;;;;;;28.80;14.23;;;;;;;-3.72;76.71;102728.13;5001441;28;20038;-66
2022/03/07 03:59:48;;;;;;;29.67;13.25;;;;;;;-3.67;77.39;102734.34;5016659;28;20407;-67
2022/03/07 04:02:14;;;;;;;30.42;13.93;;;;;;;-3.67;78.08;102736.94;5000853;28;20053;-66
2022/03/07 04:04:40;;;;;;;27.90;14.80;;;;;;;-3.65;77.63;102735.28;5000550;28;20046;-66
2022/03/07 04:07:05;;;;;;;30.98;14.82;;;;;;;-3.66;78.00;102733.53;5002224;28;20041;-66
2022/03/07 04:09:31;;;;;;;27.92;14.75;;;;;;;-3.74;77.74;102732.44;5000350;28;20041;-66
2022/03/07 04:11:56;;;;;;;39.08;14.10;;;;;;;-3.77;77.83;102746.25;5001849;28;20049;-67
2022/03/07 04:14:22;;;;;;;33.15;15.32;;;;;;;-3.77;78.85;102747.97;5000519;28;20034;-67
2022/03/07 04:16:48;;;;;;;35.00;16.38;;;;;;;-3.77;77.84;102745.38;5001826;28;20128;-67
2022/03/07 04:19:15;;;;;;;31.27;14.98;;;;;;;-3.83;78.23;102751.31;5001359;28;20042;-66
2022/03/07 04:21:41;;;;;;;31.70;15.63;;;;;;;-3.81;78.33;102751.38;5000981;28;20042;-66
2022/03/07 04:24:09;;;;;;;31.33;15.65;;;;;;;-3.79;79.28;102747.06;5001075;28;20049;-66
2022/03/07 04:26:36;;;;;;;31.85;15.35;;;;;;;-3.76;79.33;102755.00;5001091;28;20052;-66
2022/03/07 04:29:07;;;;;;;25.50;13.45;;;;;;;-3.76;78.81;102747.16;5016516;28;20051;-67
2022/03/07 04:31:36;;;;;;;32.00;15.82;;;;;;;-3.70;78.95;102757.75;5000170;28;20056;-66
2022/03/07 04:34:02;;;;;;;36.90;15.60;;;;;;;-3.84;77.43;102749.56;5001411;28;20502;-66
2022/03/07 04:36:28;;;;;;;31.52;15.95;;;;;;;-3.85;78.32;102747.81;5016192;28;20466;-66
2022/03/07 04:38:53;;;;;;;31.70;15.43;;;;;;;-3.87;78.38;102743.38;5016272;28;20056;-66
2022/03/07 04:41:19;;;;;;;35.65;14.65;;;;;;;-3.76;79.11;102748.06;5001864;28;20038;-66
2022/03/07 04:43:44;;;;;;;34.78;15.85;;;;;;;-3.67;78.79;102742.16;5019077;28;20427;-66
2022/03/07 04:46:10;;;;;;;39.88;17.10;;;;;;;-3.55;79.09;102741.63;5020646;28;20046;-66
2022/03/07 04:48:37;;;;;;;31.45;15.75;;;;;;;-3.46;79.15;102736.66;5020447;28;20081;-66
2022/03/07 04:51:03;;;;;;;37.35;17.35;;;;;;;-3.43;79.23;102737.56;5020309;28;20046;-66
2022/03/07 04:53:29;;;;;;;31.30;14.10;;;;;;;-3.50;77.45;102737.41;5020835;28;20037;-66
2022/03/07 04:55:56;;;;;;;38.33;16.98;;;;;;;-3.50;78.26;102738.28;5001465;28;20042;-66
2022/03/07 04:58:28;;;;;;;35.08;14.93;;;;;;;-3.56;78.03;102726.84;4985876;28;20042;-67
2022/03/07 05:00:55;;;;;;;30.67;15.23;;;;;;;-3.60;78.26;102731.06;5000811;28;20034;-66
2022/03/07 05:03:23;;;;;;;33.58;15.82;;;;;;;-3.66;78.72;102729.19;4984238;28;20030;-66
2022/03/07 05:05:50;;;;;;;32.13;16.13;;;;;;;-3.73;78.17;102732.47;4985507;28;20037;-67
2022/03/07 05:08:16;;;;;;;29.98;15.43;;;;;;;-3.99;77.69;102742.22;4985921;28;20042;-66
2022/03/07 05:10:41;;;;;;;28.10;14.45;;;;;;;-4.06;78.58;102742.91;4984375;28;20054;-66
2022/03/07 05:13:07;;;;;;;30.33;14.57;;;;;;;-4.06;78.99;102732.47;4985942;28;20655;-66
2022/03/07 05:15:32;;;;;;;30.80;14.95;;;;;;;-4.07;79.81;102735.91;4985853;28;20100;-66
2022/03/07 05:17:58;;;;;;;36.03;17.05;;;;;;;-3.91;79.19;102727.69;4986022;28;20784;-66
2022/03/07 05:20:24;;;;;;;36.80;16.23;;;;;;;-3.92;78.69;102733.75;4986686;28;20525;-66
2022/03/07 05:22:50;;;;;;;32.90;16.08;;;;;;;-4.15;78.74;102739.16;5003922;28;20038;-67
2022/03/07 05:25:17;;;;;;;33.15;16.73;;;;;;;-4.28;78.56;102741.41;5003807;28;20038;-66
2022/03/07 05:27:44;;;;;;;34.08;15.18;;;;;;;-4.16;79.32;102740.88;5003835;28;20068;-66
2022/03/07 05:30:11;;;;;;;34.65;14.93;;;;;;;-4.33;79.29;102745.59;5003179;28;20156;-66
2022/03/07 05:32:36;;;;;;;32.42;15.70;;;;;;;-4.32;78.94;102749.97;5004936;28;20045;-67
2022/03/07 05:35:03;;;;;;;39.67;16.00;;;;;;;-4.47;79.89;102745.22;5004586;28;20050;-67
2022/03/07 05:37:29;;;;;;;32.40;15.40;;;;;;;-4.50;79.59;102752.94;5004725;28;20076;-66
2022/03/07 05:39:54;;;;;;;33.60;16.23;;;;;;;-4.49;79.71;102759.91;5019745;28;20479;-66
2022/03/07 05:42:21;;;;;;;36.58;16.67;;;;;;;-4.47;79.41;102757.31;5004791;28;20119;-66
2022/03/07 05:44:47;;;;;;;34.60;15.45;;;;;;;-4.31;80.44;102759.56;5021018;28;20149;-66
2022/03/07 05:47:12;;;;;;;31.15;15.02;;;;;;;-4.32;80.98;102764.69;5020333;28;20120;-66
2022/03/07 05:49:37;;;;;;;32.90;15.27;;;;;;;-4.46;80.47;102765.22;4987530;28;20037;-66
2022/03/07 05:52:04;;;;;;;35.20;16.05;;;;;;;-4.49;80.69;102767.72;5003496;28;20069;-66
2022/03/07 05:54:29;;;;;;;40.65;16.58;;;;;;;-4.36;81.52;102775.91;5003075;28;20054;-67
2022/03/07 05:56:55;;;;;;;45.65;18.35;;;;;;;-4.21;81.31;102774.59;5005066;28;20092;-67
2022/03/07 05:59:20;;;;;;;38.30;17.95;;;;;;;-4.20;80.87;102770.28;5004762;28;20077;-66
2022/03/07 06:01:45;;;;;;;30.92;15.75;;;;;;;-4.15;81.08;102773.00;5004888;28;20050;-66
2022/03/07 06:04:11;;;;;;;38.97;19.00;;;;;;;-4.16;79.87;102769.53;5003399;28;20206;-67
2022/03/07 06:06:37;;;;;;;39.33;16.52;;;;;;;-4.21;79.68;102773.72;5004566;28;20065;-66
2022/03/07 06:09:02;;;;;;;35.50;16.52;;;;;;;-4.15;79.83;102773.91;5004168;28;20042;-66
2022/03/07 06:11:28;;;;;;;46.65;18.45;;;;;;;-4.08;79.57;102777.53;5003154;28;20041;-66
2022/03/07 06:13:54;;;;;;;40.58;15.48;;;;;;;-4.28;78.44;102782.19;5004014;28;20614;-66
2022/03/07 06:16:19;;;;;;;31.30;15.73;;;;;;;-4.34;79.90;102776.81;5004691;28;20076;-66
2022/03/07 06:18:44;;;;;;;38.35;19.00;;;;;;;-4.20;80.13;102773.75;5002360;28;20483;-67
2022/03/07 06:21:10;;;;;;;39.50;17.70;;;;;;;-4.03;80.18;102774.22;5018182;28;20053;-67
2022/03/07 06:23:38;;;;;;;38.85;18.42;;;;;;;-3.91;80.78;102769.38;5003462;28;20158;-67
2022/03/07 06:26:05;;;;;;;36.58;17.38;;;;;;;-3.89;79.08;102771.13;5002552;28;20049;-67
2022/03/07 06:28:31;;;;;;;38.60;18.80;;;;;;;-3.88;79.71;102768.56;5003597;28;20057;-66
2022/03/07 06:30:56;;;;;;;45.47;17.48;;;;;;;-3.69;79.42;102777.75;5004221;28;20148;-67
2022/03/07 06:33:21;;;;;;;39.05;17.77;;;;;;;-3.59;78.84;102777.16;5002776;28;20040;-66
2022/03/07 06:35:47;;;;;;;41.03;18.33;;;;;;;-3.58;79.30;102783.25;5001241;28;20480;-66
2022/03/07 06:38:12;;;;;;;36.60;17.25;;;;;;;-3.42;78.58;102780.19;5001222;28;20040;-66
2022/03/07 06:40:38;;;;;;;41.20;18.40;;;;;;;-3.40;78.33;102783.72;5002803;28;20570;-66
2022/03/07 06:43:03;;;;;;;39.75;17.52;;;;;;;-3.44;77.44;102779.28;5001388;28;20033;-67
2022/03/07 06:45:30;;;;;;;42.30;18.27;;;;;;;-3.28;77.61;102783.16;5000682;28;20124;-66
2022/03/07 06:47:56;;;;;;;36.75;17.40;;;;;;;-3.46;77.51;102778.38;5017540;28;20041;-66
2022/03/07 06:50:22;;;;;;;39.33;18.33;;;;;;;-3.44;77.42;102780.16;5000320;28;20042;-66
2022/03/07 06:52:48;;;;;;;42.50;17.23;;;;;;;-3.14;77.36;102790.47;5005176;28;20052;-67
2022/03/07 06:55:14;;;;;;;38.60;18.48;;;;;;;-3.23;77.69;102781.53;5002302;28;20037;-66
2022/03/07 06:57:41;;;;;;;33.78;17.65;;;;;;;-3.09;77.69;102779.25;5017625;28;20050;-66
2022/03/07 07:00:14;;;;;;;39.20;18.58;;;;;;;-2.82;77.64;102779.91;5006282;28;20162;-66
2022/03/07 07:02:40;;;;;;;;;;;;;;;-2.63;77.75;102775.97;5004246;28;20038;-66
2022/03/07 07:05:07;;;;;;;39.60;18.33;;;;;;;-2.48;77.20;102776.31;5002477;28;20722;-66
2022/03/07 07:07:33;;;;;;;38.72;17.10;;;;;;;-2.41;77.01;102770.38;4983633;28;20073;-66
2022/03/07 07:09:59;;;;;;;44.40;19.75;;;;;;;-2.25;76.76;102774.19;5003273;28;20087;-66
2022/03/07 07:12:24;;;;;;;39.35;17.23;;;;;;;-2.03;76.71;102772.00;5002563;28;20129;-66
2022/03/07 07:14:50;;;;;;;40.10;18.67;;;;;;;-1.74;75.92;102772.56;5002519;28;20056;-66
2022/03/07 07:17:16;;;;;;;47.20;18.90;;;;;;;-1.60;76.15;102771.97;5001191;28;20564;-66
2022/03/07 07:19:41;;;;;;;37.58;18.00;;;;;;;-1.18;74.81;102762.19;5002521;28;20624;-66
2022/03/07 07:22:07;;;;;;;39.28;18.27;;;;;;;-1.10;74.51;102771.94;5002292;28;20034;-66
2022/03/07 07:24:33;;;;;;;43.60;18.42;;;;;;;-0.67;75.75;102774.31;5002837;28;20048;-66
2022/03/07 07:26:58;;;;;;;32.50;17.90;;;;;;;-0.44;73.08;102762.41;5000988;28;20590;-66
2022/03/07 07:29:24;;;;;;;31.45;16.55;;;;;;;0.01;72.41;102761.22;5002452;28;20612;-66
2022/03/07 07:31:51;;;;;;;33.15;15.98;;;;;;;0.44;70.06;102757.25;5001089;28;20050;-66
2022/03/07 07:34:18;;;;;;;30.67;15.85;;;;;;;0.30;70.47;102771.13;5000717;28;20046;-67
2022/03/07 07:36:43;;;;;;;25.75;14.52;;;;;;;0.93;68.70;102755.06;5000229;28;20132;-66
2022/03/07 07:39:09;;;;;;;27.23;14.43;;;;;;;1.11;67.93;102751.69;5017000;28;20060;-66
2022/03/07 07:41:35;;;;;;;22.35;13.77;;;;;;;1.28;67.74;102757.91;4999824;28;20045;-66
2022/03/07 07:44:01;;;;;;;26.65;13.98;;;;;;;1.98;65.63;102764.38;4999506;28;20046;-66
2022/03/07 07:46:26;;;;;;;24.10;13.52;;;;;;;1.58;65.82;102758.97;4999301;28;20140;-67
2022/03/07 07:48:52;;;;;;;28.20;14.18;;;;;;;2.10;65.50;102761.78;4999776;28;20155;-67
2022/03/07 07:51:17;;;;;;;24.70;13.73;;;;;;;2.07;64.89;102764.41;5001524;28;20050;-66
2022/03/07 07:53:43;;;;;;;20.35;12.75;;;;;;;2.21;63.54;102761.78;5002073;28;20846;-65
2022/03/07 07:56:08;;;;;;;23.05;12.75;;;;;;;2.51;62.84;102761.88;5002438;28;20038;-65
2022/03/07 07:58:34;;;;;;;23.65;13.52;;;;;;;2.55;63.37;102763.59;5002286;28;20717;-66
2022/03/07 08:00:59;;;;;;;23.67;13.82;;;;;;;2.53;63.74;102768.00;5002627;28;20034;-66
2022/03/07 08:03:25;;;;;;;25.02;12.98;;;;;;;2.19;64.01;102777.59;5002417;28;20045;-66
2022/03/07 08:05:51;;;;;;;21.42;12.57;;;;;;;2.41;63.48;102778.53;5002522;28;20832;-65
2022/03/07 08:08:17;;;;;;;20.77;13.18;;;;;;;2.30;63.55;102783.75;4984417;28;20134;-66
2022/03/07 08:10:42;;;;;;;26.40;15.23;;;;;;;2.02;65.04;102787.19;4984659;28;20073;-66
2022/03/07 08:13:08;;;;;;;27.80;14.75;;;;;;;1.62;66.28;102788.78;5000702;28;20033;-68
2022/03/07 08:15:34;;;;;;;26.40;15.07;;;;;;;1.58;68.75;102798.41;5000534;28;20077;-66
2022/03/07 08:17:59;;;;;;;25.52;14.48;;;;;;;1.44;68.29;102798.31;5001950;28;20057;-66
2022/03/07 08:20:27;;;;;;;25.00;14.80;;;;;;;1.55;68.43;102795.72;5001946;28;20037;-66
2022/03/07 08:22:52;;;;;;;20.80;14.18;;;;;;;1.57;69.77;102798.41;5016928;28;20041;-67
2022/03/07 08:25:19;;;;;;;27.00;15.60;;;;;;;1.54;68.93;102804.50;5002007;28;20107;-66
2022/03/07 08:27:44;;;;;;;26.67;14.27;;;;;;;1.41;69.02;102807.94;5000019;28;20050;-65
2022/03/07 08:30:14;;;;;;;30.30;15.38;;;;;;;1.49;69.77;102811.47;5012765;28;20491;-67
2022/03/07 08:32:42;;;;;;;29.92;15.13;;;;;;;1.52;69.34;102804.50;5000536;28;20077;-66
2022/03/07 08:35:10;;;;;;;26.27;14.70;;;;;;;1.55;69.09;102811.50;5002460;28;20060;-66
2022/03/07 08:37:37;;;;;;;28.77;15.20;;;;;;;1.60;70.34;102811.53;5002602;28;20043;-66
2022/03/07 08:40:04;;;;;;;30.70;16.05;;;;;;;1.71;68.85;102808.13;5018162;28;20054;-66
2022/03/07 08:42:30;;;;;;;30.67;15.23;;;;;;;1.80;68.44;102809.88;5017517;28;20058;-66
2022/03/07 08:44:55;;;;;;;33.78;15.82;;;;;;;1.88;67.81;102813.44;5002544;28;20038;-66
2022/03/07 08:47:21;;;;;;;28.92;15.60;;;;;;;1.97;67.71;102812.63;5000504;28;20041;-66
2022/03/07 08:49:48;;;;;;;31.77;15.50;;;;;;;2.12;67.79;102815.28;5002742;28;20037;-66
2022/03/07 08:52:17;;;;;;;27.88;14.40;;;;;;;2.25;69.08;102814.44;5017139;28;20042;-67
2022/03/07 08:54:44;;;;;;;30.45;16.13;;;;;;;2.41;67.77;102810.13;5000855;28;20056;-67
2022/03/07 08:57:16;;;;;;;24.35;15.45;;;;;;;2.77;68.04;102809.28;5002086;28;20053;-66
2022/03/07 08:59:41;;;;;;;32.72;15.98;;;;;;;2.71;66.70;102804.03;5002054;28;20041;-67
2022/03/07 09:02:09;;;;;;;31.35;16.38;;;;;;;2.83;67.06;102805.78;5016728;28;20033;-66
2022/03/07 09:04:36;;;;;;;34.45;15.43;;;;;;;2.91;65.51;102803.13;5001314;28;20065;-66
2022/03/07 09:07:02;;;;;;;24.63;14.45;;;;;;;2.72;64.21;102803.13;5001815;28;20049;-66
2022/03/07 09:09:28;;;;;;;21.20;13.68;;;;;;;2.97;64.78;102797.88;5001951;28;20037;-66
2022/03/07 09:11:53;;;;;;;26.63;13.27;;;;;;;3.04;63.15;102791.72;5000507;28;20120;-66
2022/03/07 09:14:19;;;;;;;20.23;12.75;;;;;;;3.25;61.27;102791.69;5002121;28;20045;-66
2022/03/07 09:16:44;;;;;;;19.48;12.70;;;;;;;3.65;61.86;102796.88;5002438;28;20185;-65
2022/03/07 09:19:09;;;;;;;22.48;12.73;;;;;;;3.62;59.05;102791.63;5001847;28;20041;-66
2022/03/07 09:21:35;;;;;;;22.63;11.23;;;;;;;3.76;58.68;102795.06;5001932;28;20064;-65
2022/03/07 09:24:01;;;;;;;17.85;11.35;;;;;;;4.00;59.79;102796.72;5002312;28;20046;-66
2022/03/07 09:26:26;;;;;;;21.95;11.57;;;;;;;3.73;58.07;102804.78;5001700;28;20033;-65
2022/03/07 09:28:52;;;;;;;19.63;11.65;;;;;;;3.86;59.01;102798.53;4999846;28;20046;-66
2022/03/07 09:31:17;;;;;;;21.35;12.32;;;;;;;3.66;58.26;102800.38;5005118;28;20100;-65
2022/03/07 09:33:43;;;;;;;18.90;10.88;;;;;;;3.72;59.13;102795.97;5006054;28;20129;-66
2022/03/07 09:36:08;;;;;;;19.63;11.93;;;;;;;3.76;59.64;102797.69;5005729;28;20030;-65
2022/03/07 09:38:36;;;;;;;19.52;11.80;;;;;;;3.52;58.68;102808.34;5006187;28;20034;-66
2022/03/07 09:41:02;;;;;;;19.40;11.48;;;;;;;3.73;57.77;102794.22;5003760;28;20045;-66
2022/03/07 09:43:27;;;;;;;17.33;10.48;;;;;;;3.94;56.65;102795.88;5005038;28;20038;-66
2022/03/07 09:45:53;;;;;;;19.15;9.45;;;;;;;4.04;55.08;102793.19;5005026;28;20704;-66
2022/03/07 09:48:21;;;;;;;20.13;9.55;;;;;;;3.86;56.20;102790.63;5005136;28;20555;-66
2022/03/07 09:50:47;;;;;;;15.00;9.82;;;;;;;3.76;55.55;102795.06;5004462;28;20038;-65
2022/03/07 09:53:13;;;;;;;15.55;9.10;;;;;;;3.96;58.18;102786.19;5004016;28;20053;-66
2022/03/07 09:55:39;;;;;;;17.23;10.00;;;;;;;4.03;56.75;102777.38;5018575;28;20042;-66
2022/03/07 09:58:06;;;;;;;17.30;10.20;;;;;;;4.21;55.77;102777.25;5003609;28;20139;-68
2022/03/07 10:00:32;;;;;;;15.20;10.10;;;;;;;4.23;54.99;102778.16;5004188;28;20135;-66
2022/03/07 10:03:06;;;;;;;15.07;8.77;;;;;;;4.36;54.25;102778.94;5001990;28;20042;-67
2022/03/07 10:05:40;;;;;;;11.63;7.88;;;;;;;4.74;52.81;102767.22;5003293;28;20038;-67
2022/03/07 10:08:07;;;;;;;10.50;6.82;;;;;;;4.90;50.46;102761.78;5002117;28;20104;-66
2022/03/07 10:10:36;;;;;;;10.10;6.55;;;;;;;4.85;49.03;102758.31;5004219;28;20054;-66
2022/03/07 10:13:10;;;;;;;11.40;6.57;;;;;;;4.86;50.15;102764.47;5004527;28;20048;-66
2022/03/07 10:15:37;;;;;;;11.13;6.38;;;;;;;4.86;48.76;102761.81;5005503;28;20038;-65
2022/03/07 10:18:03;;;;;;;10.13;6.95;;;;;;;4.78;50.05;102755.75;5005952;28;20049;-67
2022/03/07 10:20:28;;;;;;;8.90;5.78;;;;;;;4.59;48.87;102762.94;5008423;28;20041;-67
2022/03/07 10:22:57;;;;;;;12.63;6.07;;;;;;;5.05;50.12;102750.19;5021866;28;20080;-66
2022/03/07 10:25:28;;;;;;;9.48;5.47;;;;;;;4.45;48.69;102757.75;5007473;28;20077;-68
2022/03/07 10:27:55;;;;;;;10.18;5.60;;;;;;;4.52;48.16;102750.63;5021029;28;20054;-66
2022/03/07 10:30:23;;;;;;;8.50;5.63;;;;;;;4.89;48.72;102753.88;5004848;28;20116;-66
2022/03/07 10:32:56;;;;;;;8.65;6.28;;;;;;;5.00;48.94;102744.06;5005615;28;20049;-65
2022/03/07 10:35:25;;;;;;;12.73;6.30;;;;;;;5.18;50.75;102748.31;5005213;28;20592;-67
2022/03/07 10:37:57;;;;;;;10.25;5.88;;;;;;;4.53;49.92;102747.13;5020157;28;20054;-67
2022/03/07 10:40:23;;;;;;;;;;;;;;;4.62;49.68;102734.72;5005477;28;20050;-66
2022/03/07 10:42:49;;;;;;;11.02;5.70;;;;;;;4.80;49.58;102735.44;5003075;28;19996;-67
2022/03/07 10:45:15;;;;;;;11.25;7.18;;;;;;;5.20;49.96;102736.81;5004465;28;20057;-66
2022/03/07 10:47:41;;;;;;;11.50;6.30;;;;;;;5.24;49.64;102734.16;5019432;28;20034;-66
2022/03/07 10:50:08;;;;;;;13.60;7.15;;;;;;;5.76;49.91;102729.09;5002643;28;20464;-67
2022/03/07 10:52:42;;;;;;;10.93;6.18;;;;;;;5.94;49.45;102718.31;5004158;28;20037;-67
2022/03/07 10:55:10;;;;;;;13.98;7.28;;;;;;;5.99;48.06;102725.31;5004416;28;20092;-67
2022/03/07 10:57:38;;;;;;;13.98;7.93;;;;;;;6.00;49.51;102717.34;5002774;28;20061;-66
2022/03/07 11:00:10;;;;;;;12.10;7.00;;;;;;;5.88;48.14;102717.50;5018797;28;20559;-65
2022/03/07 11:02:44;;;;;;;14.40;8.15;;;;;;;5.52;50.72;102724.13;5003344;28;20056;-66
2022/03/07 11:05:10;;;;;;;13.75;7.63;;;;;;;5.53;51.07;102705.59;5019594;28;20045;-66
2022/03/07 11:07:49;;;;;;;11.02;7.75;;;;;;;5.59;51.69;102709.94;5003898;28;20038;-66
2022/03/07 11:10:15;;;;;;;14.02;8.35;;;;;;;5.93;53.34;102705.09;5001979;28;20503;-67